Terminal Aerodrome Forecast
Issued by NWS Portland, OR

Home | Current Version | Previous Version | Text Only | Print | Product List | Glossary On
Versions: 1 2 3 4 5 6 7 8 9 10 11 12 13 14 15 16 17 18 19 20 21 22 23 24 25 26 27 28 29 30 31 32 33 34 35 36 37 38
000
FTUS46 KPQR 211743
TAFSLE
TAF
KSLE 211743Z 2118/2218 19012G20KT P6SM -RA BKN040 OVC050
     FM212000 19012G24KT P6SM -RA SCT008 BKN025 OVC040
     FM212300 19014G28KT 4SM RA BKN020 OVC035
     FM220600 20010KT 4SM -RA BR BKN012 OVC025=

USA.gov is the U.S. government's official web portal to all federal, state and local government web resources and services.